createdAt,value
2018-11-23T00:00:35.375Z,91.40
2018-11-23T00:03:02.189Z,91.20
2018-11-23T00:05:28.789Z,91.21
2018-11-23T00:07:57.829Z,91.37
2018-11-23T00:10:26.892Z,91.17
2018-11-23T00:12:54.438Z,90.99
2018-11-23T00:15:22.168Z,91.38
2018-11-23T00:17:48.788Z,91.17
2018-11-23T00:20:16.684Z,91.35
2018-11-23T00:22:43.742Z,91.47
2018-11-23T00:25:12.737Z,91.55
2018-11-23T00:27:40.570Z,91.43
2018-11-23T00:30:12.497Z,91.22
2018-11-23T00:32:39.932Z,91.26
2018-11-23T00:35:08.018Z,91.22
2018-11-23T00:37:36.070Z,91.18
2018-11-23T00:40:02.640Z,91.02
2018-11-23T00:42:29.246Z,91.58
2018-11-23T00:44:55.811Z,91.07
2018-11-23T00:47:24.342Z,91.35
2018-11-23T00:49:50.921Z,91.24
2018-11-23T00:52:18.827Z,91.59
2018-11-23T00:54:45.388Z,91.65
2018-11-23T00:57:12.377Z,91.84
2018-11-23T00:59:39.066Z,91.72
2018-11-23T01:02:07.196Z,91.78
2018-11-23T01:04:35.243Z,91.91
2018-11-23T01:07:02.295Z,91.68
2018-11-23T01:09:30.063Z,91.74
2018-11-23T01:11:57.604Z,91.88
2018-11-23T01:14:25.640Z,91.90
2018-11-23T01:16:52.214Z,92.04
2018-11-23T01:19:19.842Z,92.06
2018-11-23T01:21:48.475Z,92.24
2018-11-23T01:24:16.915Z,92.44
2018-11-23T01:26:43.476Z,92.16
2018-11-23T01:29:10.190Z,91.82
2018-11-23T01:31:37.929Z,92.01
2018-11-23T01:34:04.608Z,92.16
2018-11-23T01:36:31.192Z,92.10
2018-11-23T01:38:57.810Z,92.18
2018-11-23T01:41:24.830Z,92.19
2018-11-23T01:43:51.341Z,92.29
2018-11-23T01:46:18.671Z,91.97
2018-11-23T01:48:45.281Z,92.13
2018-11-23T01:51:13.011Z,92.17
2018-11-23T01:53:39.609Z,92.08
2018-11-23T01:56:07.474Z,92.15
2018-11-23T01:58:34.065Z,92.33
2018-11-23T02:01:00.733Z,92.31
2018-11-23T02:03:27.559Z,92.39
2018-11-23T02:05:54.153Z,92.13
2018-11-23T02:08:20.745Z,92.36
2018-11-23T02:10:47.371Z,92.35
2018-11-23T02:13:14.208Z,92.34
2018-11-23T02:15:41.572Z,92.24
2018-11-23T02:18:08.159Z,92.27
2018-11-23T02:20:34.797Z,92.07
2018-11-23T02:23:01.362Z,92.35
2018-11-23T02:25:27.980Z,92.23
2018-11-23T02:27:54.570Z,92.03
2018-11-23T02:30:22.524Z,91.90
2018-11-23T02:32:49.127Z,91.98
2018-11-23T02:35:16.100Z,91.83
2018-11-23T02:37:42.704Z,91.74
2018-11-23T02:40:10.710Z,91.89
2018-11-23T02:42:37.643Z,92.07
2018-11-23T02:45:06.131Z,91.73
2018-11-23T02:47:32.718Z,91.58
2018-11-23T02:49:59.328Z,91.76
2018-11-23T02:52:25.902Z,91.70
2018-11-23T02:54:52.499Z,91.74
2018-11-23T02:57:19.105Z,91.92
2018-11-23T02:59:45.707Z,91.91
2018-11-23T03:02:12.297Z,92.02
2018-11-23T03:04:38.904Z,92.18
2018-11-23T03:07:05.487Z,92.20
2018-11-23T03:09:32.118Z,92.15
2018-11-23T03:11:58.695Z,91.82
2018-11-23T03:14:25.297Z,91.95
2018-11-23T03:16:51.884Z,91.97
2018-11-23T03:19:18.480Z,91.79
2018-11-23T03:21:45.104Z,91.96
2018-11-23T03:24:11.691Z,91.77
2018-11-23T03:26:38.287Z,92.03
2018-11-23T03:29:04.943Z,92.06
2018-11-23T03:31:31.546Z,91.98
2018-11-23T03:33:58.146Z,91.96
2018-11-23T03:36:24.771Z,91.99
2018-11-23T03:38:51.687Z,92.10
2018-11-23T03:41:18.284Z,92.14
2018-11-23T03:43:44.959Z,92.14
2018-11-23T03:46:11.580Z,92.08
2018-11-23T03:48:38.153Z,92.16
2018-11-23T03:51:04.825Z,91.88
2018-11-23T03:53:31.417Z,92.10
2018-11-23T03:55:58.025Z,92.08
2018-11-23T03:58:24.610Z,91.98
2018-11-23T04:00:51.226Z,92.11
2018-11-23T04:03:17.806Z,92.10
2018-11-23T04:05:44.409Z,92.16
2018-11-23T04:08:10.977Z,92.19
2018-11-23T04:10:37.575Z,92.11
2018-11-23T04:13:04.417Z,92.06
2018-11-23T04:15:31.015Z,92.07
2018-11-23T04:17:57.616Z,92.11
2018-11-23T04:20:24.207Z,91.92
2018-11-23T04:22:50.785Z,92.02
2018-11-23T04:25:17.396Z,92.14
2018-11-23T04:27:44.018Z,92.10
2018-11-23T04:30:12.685Z,92.23
2018-11-23T04:32:39.275Z,92.27
2018-11-23T04:35:07.554Z,92.29
2018-11-23T04:37:34.122Z,92.39
2018-11-23T04:40:00.715Z,92.36
2018-11-23T04:42:27.286Z,92.34
2018-11-23T04:44:53.872Z,92.41
2018-11-23T04:47:20.455Z,92.40
2018-11-23T04:49:47.036Z,92.34
2018-11-23T04:52:13.625Z,92.24
2018-11-23T04:54:40.193Z,92.20
2018-11-23T04:57:06.798Z,92.13
2018-11-23T04:59:33.377Z,92.26
2018-11-23T05:01:59.957Z,92.43
2018-11-23T05:04:26.542Z,92.40
2018-11-23T05:06:53.120Z,92.43
2018-11-23T05:09:19.688Z,92.40
2018-11-23T05:11:46.299Z,92.45
2018-11-23T05:14:12.873Z,92.32
2018-11-23T05:16:39.474Z,92.35
2018-11-23T05:19:06.098Z,92.26
2018-11-23T05:21:32.685Z,92.45
2018-11-23T05:23:59.265Z,92.43
2018-11-23T05:26:25.877Z,92.40
2018-11-23T05:28:52.457Z,92.51
2018-11-23T05:31:19.045Z,92.62
2018-11-23T05:33:45.606Z,92.80
2018-11-23T05:36:12.217Z,92.96
2018-11-23T05:38:38.796Z,92.88
2018-11-23T05:41:05.378Z,92.78
2018-11-23T05:43:31.954Z,92.99
2018-11-23T05:45:58.541Z,92.80
2018-11-23T05:48:26.960Z,92.80
2018-11-23T05:50:51.768Z,92.92
2018-11-23T05:53:18.351Z,92.97
2018-11-23T05:55:44.924Z,92.95
2018-11-23T05:58:11.575Z,92.97
2018-11-23T06:00:38.133Z,92.88
2018-11-23T06:03:04.724Z,92.97
2018-11-23T06:05:31.288Z,93.13
2018-11-23T06:07:57.908Z,92.95
2018-11-23T06:10:24.504Z,92.96
2018-11-23T06:12:51.140Z,93.24
2018-11-23T06:15:18.920Z,93.26
2018-11-23T06:17:46.057Z,93.30
2018-11-23T06:20:14.727Z,93.46
2018-11-23T06:22:41.678Z,93.39
2018-11-23T06:25:11.087Z,93.32
2018-11-23T06:27:37.952Z,93.51
2018-11-23T06:30:05.986Z,93.58
2018-11-23T06:33:12.101Z,93.53
2018-11-23T06:35:38.663Z,93.78
2018-11-23T06:38:05.243Z,93.73
2018-11-23T06:40:31.813Z,93.83
2018-11-23T06:42:58.406Z,93.95
2018-11-23T06:45:24.982Z,93.97
2018-11-23T06:47:51.545Z,93.83
2018-11-23T06:50:18.130Z,94.07
2018-11-23T06:52:44.718Z,94.24
2018-11-23T06:55:11.637Z,94.10
2018-11-23T06:57:38.460Z,94.19
2018-11-23T07:00:26.451Z,94.09
2018-11-23T07:02:58.900Z,94.09
2018-11-23T07:05:19.610Z,94.18
2018-11-23T07:07:46.175Z,94.17
2018-11-23T07:10:12.777Z,94.09
2018-11-23T07:12:39.896Z,94.21
2018-11-23T07:15:10.453Z,94.36
2018-11-23T07:17:37.281Z,94.27
2018-11-23T07:20:05.373Z,94.09
2018-11-23T07:22:31.935Z,94.24
2018-11-23T07:24:58.533Z,94.13
2018-11-23T07:27:25.101Z,94.04
2018-11-23T07:29:51.689Z,94.00
2018-11-23T07:32:18.261Z,94.02
2018-11-23T07:34:44.862Z,94.05
2018-11-23T07:37:11.460Z,93.83
2018-11-23T07:40:18.373Z,93.80
2018-11-23T07:42:44.936Z,93.79
2018-11-23T07:45:11.551Z,93.96
2018-11-23T07:47:38.114Z,94.01
2018-11-23T07:50:06.410Z,94.09
2018-11-23T07:52:32.976Z,94.03
2018-11-23T07:54:59.560Z,94.22
2018-11-23T07:57:26.149Z,94.23
2018-11-23T07:59:52.748Z,94.30
2018-11-23T08:02:19.316Z,94.08
2018-11-23T08:04:45.949Z,93.99
2018-11-23T08:07:12.535Z,94.10
2018-11-23T08:09:39.933Z,94.24
2018-11-23T08:12:06.796Z,94.17
2018-11-23T08:14:33.389Z,94.26
2018-11-23T08:16:59.993Z,94.29
2018-11-23T08:19:26.554Z,94.29
2018-11-23T08:21:53.144Z,94.26
2018-11-23T08:24:19.725Z,94.18
2018-11-23T08:26:46.328Z,94.13
2018-11-23T08:29:12.898Z,94.24
2018-11-23T08:31:39.707Z,94.37
2018-11-23T08:34:06.539Z,94.24
2018-11-23T08:36:33.150Z,94.32
2018-11-23T08:39:04.700Z,94.26
2018-11-23T08:41:26.314Z,94.24
2018-11-23T08:43:52.890Z,94.29
2018-11-23T08:46:19.537Z,94.28
2018-11-23T08:48:46.125Z,94.36
2018-11-23T08:51:13.030Z,94.39
2018-11-23T08:53:39.592Z,94.47
2018-11-23T08:56:06.172Z,94.46
2018-11-23T08:58:32.736Z,94.54
2018-11-23T09:00:59.330Z,94.46
2018-11-23T09:03:25.914Z,94.17
2018-11-23T09:05:52.489Z,94.13
2018-11-23T09:08:19.072Z,94.04
2018-11-23T09:10:45.669Z,94.20
2018-11-23T09:13:12.270Z,94.12
2018-11-23T09:15:38.839Z,94.25
2018-11-23T09:18:05.440Z,94.21
2018-11-23T09:20:32.022Z,94.13
2018-11-23T09:22:58.619Z,94.18
2018-11-23T09:25:25.184Z,94.14
2018-11-23T09:27:51.849Z,94.22
2018-11-23T09:30:19.876Z,94.27
2018-11-23T09:32:47.147Z,94.19
2018-11-23T09:35:13.743Z,94.13
2018-11-23T09:37:40.723Z,94.06
2018-11-23T09:40:09.503Z,94.33
2018-11-23T09:42:36.272Z,94.22
2018-11-23T09:45:03.167Z,94.02
2018-11-23T09:47:29.766Z,93.85
2018-11-23T09:49:56.356Z,93.94
2018-11-23T09:52:22.952Z,94.00
2018-11-23T09:54:49.645Z,93.73
2018-11-23T09:57:16.226Z,93.95
2018-11-23T09:59:42.833Z,93.86
2018-11-23T10:02:09.561Z,93.81
2018-11-23T10:04:36.225Z,93.99
2018-11-23T10:07:02.937Z,94.01
2018-11-23T10:09:29.564Z,93.90
2018-11-23T10:11:56.166Z,94.01
2018-11-23T10:14:22.761Z,93.99
2018-11-23T10:16:49.361Z,93.88
2018-11-23T10:19:35.582Z,93.84
2018-11-23T10:22:02.185Z,93.76
2018-11-23T10:24:28.790Z,93.74
2018-11-23T10:26:55.351Z,93.96
2018-11-23T10:29:22.272Z,93.71
2018-11-23T10:31:48.837Z,93.65
2018-11-23T10:34:15.981Z,93.68
2018-11-23T10:36:42.565Z,93.70
2018-11-23T10:39:09.158Z,93.65
2018-11-23T10:41:35.749Z,93.73
2018-11-23T10:44:02.338Z,93.61
2018-11-23T10:46:28.921Z,93.66
2018-11-23T10:48:55.520Z,93.57
2018-11-23T10:51:22.110Z,93.54
2018-11-23T10:53:48.678Z,93.48
2018-11-23T10:56:15.276Z,93.34
2018-11-23T10:58:41.883Z,93.12
2018-11-23T11:01:28.072Z,93.24
2018-11-23T11:04:14.263Z,93.10
2018-11-23T11:07:00.480Z,92.92
2018-11-23T11:09:27.064Z,92.89
2018-11-23T11:11:53.668Z,92.73
2018-11-23T11:14:20.242Z,92.58
2018-11-23T11:16:46.832Z,92.61
2018-11-23T11:19:13.423Z,92.56
2018-11-23T11:21:40.011Z,92.45
2018-11-23T11:24:06.582Z,92.59
2018-11-23T11:26:33.206Z,92.56
2018-11-23T11:28:59.799Z,92.59
2018-11-23T11:31:26.640Z,92.51
2018-11-23T11:33:53.220Z,92.43
2018-11-23T11:36:19.807Z,92.49
2018-11-23T11:38:46.389Z,92.66
2018-11-23T11:41:13.077Z,92.68
2018-11-23T11:43:39.822Z,92.47
2018-11-23T11:46:06.777Z,92.68
2018-11-23T11:48:33.684Z,92.86
2018-11-23T11:51:00.293Z,92.76
2018-11-23T11:53:27.070Z,92.85
2018-11-23T11:55:53.706Z,92.87
2018-11-23T11:58:20.437Z,92.53
2018-11-23T12:00:47.703Z,92.37
2018-11-23T12:03:14.288Z,92.54
2018-11-23T12:05:40.910Z,92.55
2018-11-23T12:08:07.519Z,92.42
2018-11-23T12:10:34.159Z,92.49
2018-11-23T12:13:00.781Z,92.37
2018-11-23T12:15:27.542Z,92.54
2018-11-23T12:17:54.144Z,92.32
2018-11-23T12:20:22.240Z,92.44
2018-11-23T12:22:49.187Z,92.15
2018-11-23T12:25:16.087Z,91.95
2018-11-23T12:27:42.682Z,92.12
2018-11-23T12:30:11.215Z,92.40
2018-11-23T12:32:37.796Z,92.17
2018-11-23T12:35:05.901Z,92.21
2018-11-23T12:37:32.467Z,92.33
2018-11-23T12:39:59.979Z,92.15
2018-11-23T12:42:26.557Z,92.09
2018-11-23T12:44:53.173Z,92.19
2018-11-23T12:47:19.860Z,92.29
2018-11-23T12:49:46.482Z,92.20
2018-11-23T12:52:13.093Z,92.18
2018-11-23T12:54:39.681Z,92.15
2018-11-23T12:57:07.024Z,92.01
2018-11-23T12:59:33.608Z,91.89
2018-11-23T13:02:00.655Z,92.08
2018-11-23T13:04:27.279Z,91.86
2018-11-23T13:06:53.931Z,91.72
2018-11-23T13:09:20.610Z,91.71
2018-11-23T13:11:47.200Z,91.73
2018-11-23T13:14:13.783Z,92.04
2018-11-23T13:16:40.574Z,91.90
2018-11-23T13:19:07.166Z,91.83
2018-11-23T13:21:33.746Z,91.88
2018-11-23T13:24:00.857Z,91.79
2018-11-23T13:26:27.433Z,91.70
2018-11-23T13:28:54.250Z,91.78
2018-11-23T13:31:20.943Z,91.58
2018-11-23T13:33:47.517Z,91.63
2018-11-23T13:36:14.107Z,91.58
2018-11-23T13:38:40.682Z,91.55
2018-11-23T13:41:07.290Z,91.58
2018-11-23T13:43:33.873Z,91.57
2018-11-23T13:46:04.425Z,91.55
2018-11-23T13:48:31.116Z,91.61
2018-11-23T13:50:57.977Z,91.37
2018-11-23T13:53:24.595Z,91.39
2018-11-23T13:55:51.591Z,91.30
2018-11-23T13:58:18.205Z,91.20
2018-11-23T14:00:44.925Z,91.20
2018-11-23T14:03:11.569Z,91.18
2018-11-23T14:05:38.167Z,91.26
2018-11-23T14:08:04.949Z,91.23
2018-11-23T14:10:31.723Z,91.13
2018-11-23T14:12:58.369Z,91.09
2018-11-23T14:15:26.356Z,91.12
2018-11-23T14:17:54.016Z,90.86
2018-11-23T14:20:21.577Z,90.85
2018-11-23T14:22:48.164Z,90.92
2018-11-23T14:25:16.078Z,90.85
2018-11-23T14:27:43.145Z,90.64
2018-11-23T14:30:31.566Z,90.83
2018-11-23T14:32:58.639Z,90.82
2018-11-23T14:35:29.262Z,90.78
2018-11-23T14:37:56.673Z,90.80
2018-11-23T14:40:23.245Z,90.96
2018-11-23T14:42:50.216Z,91.08
2018-11-23T14:45:19.194Z,90.93
2018-11-23T14:47:46.363Z,90.88
2018-11-23T14:50:15.352Z,90.75
2018-11-23T14:52:43.128Z,90.73
2018-11-23T14:55:09.706Z,90.61
2018-11-23T14:57:37.123Z,90.66
2018-11-23T15:00:08.436Z,90.85
2018-11-23T15:02:35.005Z,90.90
2018-11-23T15:05:01.570Z,90.92
2018-11-23T15:07:28.190Z,90.93
2018-11-23T15:09:55.007Z,90.85
2018-11-23T15:12:21.601Z,90.86
2018-11-23T15:14:48.214Z,90.85
2018-11-23T15:17:14.807Z,90.76
2018-11-23T15:19:41.405Z,90.80
2018-11-23T15:22:07.984Z,90.90
2018-11-23T15:24:34.593Z,90.99
2018-11-23T15:27:01.176Z,91.10
2018-11-23T15:29:27.768Z,91.05
2018-11-23T15:31:54.341Z,91.09
2018-11-23T15:34:20.977Z,90.98
2018-11-23T15:37:08.098Z,91.04
2018-11-23T15:39:34.630Z,90.97
2018-11-23T15:42:02.648Z,91.07
2018-11-23T15:44:29.467Z,91.10
2018-11-23T15:46:56.085Z,91.17
2018-11-23T15:49:24.437Z,91.09
2018-11-23T15:51:52.538Z,90.76
2018-11-23T15:54:20.270Z,90.73
2018-11-23T15:56:54.875Z,90.82
2018-11-23T15:59:22.250Z,90.78
2018-11-23T16:01:49.047Z,90.66
2018-11-23T16:04:16.874Z,90.47
2018-11-23T16:06:43.461Z,90.40
2018-11-23T16:09:11.771Z,90.62
2018-11-23T16:11:38.413Z,90.63
2018-11-23T16:14:05.113Z,90.23
2018-11-23T16:16:31.711Z,90.45
2018-11-23T16:18:58.314Z,90.29
2018-11-23T16:21:24.894Z,90.00
2018-11-23T16:23:51.489Z,89.99
2018-11-23T16:26:18.065Z,90.29
2018-11-23T16:28:44.644Z,89.95
2018-11-23T16:31:11.213Z,90.04
2018-11-23T16:33:37.822Z,90.20
2018-11-23T16:36:04.405Z,90.15
2018-11-23T16:38:30.953Z,90.12
2018-11-23T16:40:57.537Z,90.44
2018-11-23T16:43:24.185Z,90.29
2018-11-23T16:45:50.773Z,90.28
2018-11-23T16:48:18.085Z,90.47
2018-11-23T16:50:44.956Z,90.71
2018-11-23T16:53:11.584Z,90.35
2018-11-23T16:55:38.181Z,90.36
2018-11-23T16:58:24.388Z,90.46
2018-11-23T17:00:50.984Z,90.57
2018-11-23T17:03:19.128Z,90.44
2018-11-23T17:05:55.637Z,90.35
2018-11-23T17:08:22.208Z,90.57
2018-11-23T17:10:48.786Z,90.57
2018-11-23T17:13:15.368Z,90.68
2018-11-23T17:15:41.936Z,90.72
2018-11-23T17:18:08.621Z,90.73
2018-11-23T17:20:35.760Z,90.65
2018-11-23T17:23:03.317Z,90.88
2018-11-23T17:25:30.470Z,90.88
2018-11-23T17:27:58.321Z,90.97
2018-11-23T17:30:26.142Z,90.99
2018-11-23T17:32:52.935Z,90.87
2018-11-23T17:35:19.618Z,90.95
2018-11-23T17:37:46.222Z,91.04
2018-11-23T17:40:14.113Z,91.02
2018-11-23T17:42:40.700Z,91.19
2018-11-23T17:45:12.043Z,90.92
2018-11-23T17:47:38.684Z,90.91
2018-11-23T17:50:07.698Z,90.87
2018-11-23T17:52:34.273Z,91.04
2018-11-23T17:55:00.858Z,90.67
2018-11-23T17:57:27.446Z,90.95
2018-11-23T17:59:54.019Z,90.79
2018-11-23T18:02:22.769Z,90.95
2018-11-23T18:04:50.012Z,91.00
2018-11-23T18:07:16.700Z,91.28
2018-11-23T18:09:43.428Z,91.33
2018-11-23T18:12:10.033Z,91.37
2018-11-23T18:14:36.582Z,91.50
2018-11-23T18:17:03.266Z,91.46
2018-11-23T18:19:30.008Z,91.24
2018-11-23T18:21:56.618Z,91.11
2018-11-23T18:24:23.187Z,90.90
2018-11-23T18:26:50.776Z,90.78
2018-11-23T18:29:17.520Z,90.75
2018-11-23T18:31:44.082Z,90.81
2018-11-23T18:34:10.698Z,90.92
2018-11-23T18:36:37.318Z,90.75
2018-11-23T18:39:06.731Z,90.84
2018-11-23T18:41:33.306Z,90.92
2018-11-23T18:43:59.951Z,90.91
2018-11-23T18:46:26.515Z,90.77
2018-11-23T18:48:53.117Z,90.72
2018-11-23T18:51:19.695Z,90.71
2018-11-23T18:53:46.304Z,90.68
2018-11-23T18:56:12.867Z,90.75
2018-11-23T18:58:39.467Z,90.76
2018-11-23T19:01:06.055Z,90.70
2018-11-23T19:03:32.658Z,90.64
2018-11-23T19:05:59.218Z,90.85
2018-11-23T19:08:25.819Z,90.92
2018-11-23T19:10:52.433Z,90.89
2018-11-23T19:13:19.050Z,90.79
2018-11-23T19:15:45.590Z,90.76
2018-11-23T19:18:12.416Z,90.79
2018-11-23T19:20:38.992Z,90.76
2018-11-23T19:23:05.629Z,90.80
2018-11-23T19:25:32.206Z,90.83
2018-11-23T19:27:58.808Z,90.75
2018-11-23T19:30:28.516Z,90.99
2018-11-23T19:32:51.964Z,91.08
2018-11-23T19:35:18.535Z,91.02
2018-11-23T19:37:45.127Z,90.75
2018-11-23T19:40:12.623Z,90.76
2018-11-23T19:42:39.387Z,90.79
2018-11-23T19:45:15.424Z,90.85
2018-11-23T19:47:42.034Z,90.68
2018-11-23T19:50:12.636Z,90.77
2018-11-23T19:52:39.390Z,90.69
2018-11-23T19:55:10.564Z,90.81
2018-11-23T19:57:37.134Z,90.91
2018-11-23T20:00:25.934Z,90.74
2018-11-23T20:02:52.607Z,90.79
2018-11-23T20:05:19.232Z,90.42
2018-11-23T20:07:47.035Z,90.53
2018-11-23T20:10:17.688Z,90.57
2018-11-23T20:12:45.017Z,90.75
2018-11-23T20:15:15.865Z,90.87
2018-11-23T20:17:42.434Z,90.93
2018-11-23T20:20:10.280Z,90.74
2018-11-23T20:22:36.849Z,90.85
2018-11-23T20:25:05.523Z,90.84
2018-11-23T20:27:32.106Z,90.82
2018-11-23T20:29:58.706Z,90.60
2018-11-23T20:32:25.287Z,90.56
2018-11-23T20:34:51.887Z,90.44
2018-11-23T20:37:18.722Z,90.60
2018-11-23T20:39:56.151Z,90.71
2018-11-23T20:42:28.287Z,90.41
2018-11-23T20:44:57.864Z,90.18
2018-11-23T20:47:24.881Z,90.18
2018-11-23T20:49:51.791Z,90.45
2018-11-23T20:52:18.854Z,90.63
2018-11-23T20:54:45.457Z,90.78
2018-11-23T20:57:12.031Z,90.88
2018-11-23T20:59:39.130Z,90.97
2018-11-23T21:02:05.213Z,90.74
2018-11-23T21:04:31.795Z,90.79
2018-11-23T21:06:58.396Z,90.70
2018-11-23T21:09:30.998Z,90.79
2018-11-23T21:11:51.563Z,90.78
2018-11-23T21:14:18.159Z,90.49
2018-11-23T21:16:44.729Z,90.45
2018-11-23T21:19:11.309Z,90.68
2018-11-23T21:21:37.883Z,90.37
2018-11-23T21:24:04.530Z,90.67
2018-11-23T21:26:31.127Z,90.38
2018-11-23T21:28:57.688Z,90.34
2018-11-23T21:31:24.316Z,90.14
2018-11-23T21:33:50.881Z,90.48
2018-11-23T21:36:17.479Z,90.62
2018-11-23T21:38:44.071Z,90.66
2018-11-23T21:41:10.681Z,90.36
2018-11-23T21:43:37.259Z,90.44
2018-11-23T21:46:03.877Z,90.56
2018-11-23T21:48:30.461Z,90.27
2018-11-23T21:50:57.055Z,90.51
2018-11-23T21:53:23.636Z,90.60
2018-11-23T21:55:50.214Z,90.36
2018-11-23T21:58:16.785Z,90.42
2018-11-23T22:00:43.371Z,90.62
2018-11-23T22:03:09.942Z,90.85
2018-11-23T22:05:36.529Z,90.87
2018-11-23T22:08:03.102Z,91.22
2018-11-23T22:10:29.694Z,91.40
2018-11-23T22:12:56.247Z,91.02
2018-11-23T22:15:23.658Z,91.01
2018-11-23T22:17:51.186Z,91.32
2018-11-23T22:20:37.389Z,91.33
2018-11-23T22:23:03.969Z,91.31
2018-11-23T22:25:30.926Z,91.45
2018-11-23T22:27:57.464Z,91.47
2018-11-23T22:30:47.269Z,91.38
2018-11-23T22:33:13.843Z,91.14
2018-11-23T22:35:40.430Z,91.20
2018-11-23T22:38:07.008Z,91.08
2018-11-23T22:40:33.607Z,91.27
2018-11-23T22:43:00.189Z,90.88
2018-11-23T22:45:26.772Z,91.07
2018-11-23T22:47:53.356Z,90.90
2018-11-23T22:50:21.042Z,90.99
2018-11-23T22:52:47.918Z,91.25
2018-11-23T22:55:14.806Z,90.79
2018-11-23T22:57:41.407Z,90.82
2018-11-23T23:03:19.668Z,91.15
2018-11-23T23:05:46.270Z,91.13
2018-11-23T23:08:12.838Z,90.97
2018-11-23T23:10:39.451Z,91.04
2018-11-23T23:13:06.031Z,91.00
2018-11-23T23:15:32.601Z,91.10
2018-11-23T23:17:59.194Z,90.65
2018-11-23T23:20:25.769Z,90.85
2018-11-23T23:22:52.363Z,91.10
2018-11-23T23:25:18.927Z,91.07
2018-11-23T23:27:45.519Z,91.08
2018-11-23T23:30:13.238Z,91.20
2018-11-23T23:32:39.824Z,91.16
2018-11-23T23:35:07.562Z,90.97
2018-11-23T23:37:34.183Z,91.26
2018-11-23T23:40:00.721Z,91.55
2018-11-23T23:42:27.304Z,91.21
2018-11-23T23:44:53.869Z,91.31
2018-11-23T23:47:20.481Z,91.50
2018-11-23T23:49:47.074Z,91.37
2018-11-23T23:52:13.661Z,90.79
2018-11-23T23:54:40.231Z,90.96
2018-11-23T23:57:06.847Z,91.22
2018-11-23T23:59:33.421Z,91.51
